Racecast

Lake Erie Post Regional Open Meet (PROM)

Lake Erie Metro Park OFFICIAL · 5000m · Girls · Compiled · MI

115 runners from 1 division

These divisions were run separately. This is how their times compare, not how they finished — the places and scores below were never contested.

View full meet →

Team scores

Place Team Points 12345 67
1 Saline (MI) 17 1 2 3 5 6 9 10
2 Ann Arbor Pioneer (MI) 65 7 8 15 16 19 31 34
3 Ann Arbor Fr Gabriel Richard (MI) 71 11 12 13 17 18 28 29
4 Temperance Bedford (MI) 105 4 20 22 27 32 37 38
5 Woodhaven Brownstown (MI) 151 14 21 33 41 42 43 49
6 Chelsea (MI) 176 23 26 35 40 52 53 54
7 Dundee (MI) 190 24 25 46 47 48 50 51
8 New Boston Huron (MI) 194 30 36 39 44 45

Not scored, fewer than five finishers: Wyandotte Roosevelt (4), Carleton Airport (3), Wagar (3), Ypsilanti Lincoln (3), Adrian (2), Ypsilanti Community (2), Belleville (1)

Rating scale ?

Results

Place Athlete Grade School Time Rating Points Actual race
1 Mackenzie Sellenraad 12 Saline (MI) 1 20:02.5 123.7 1 1
2 Sophie Roth 10 Saline (MI) 2 20:11.3 122.8 2 2
3 Abby Roth 12 Saline (MI) 3 21:00.7 118.0 3 3
4 Aubrey Miscikowski 11 Temperance Bedford (MI) 1 21:41.0 114.4 4 4
5 Kylie Warner 12 Saline (MI) 4 21:49.6 113.6 5 5
6 Mahalia Staton 11 Saline (MI) 5 21:50.6 113.5 6 6
7 Mia Lopez 10 Ann Arbor Pioneer (MI) 1 21:51.8 113.4 7 7
8 Rachel Sprauer 12 Ann Arbor Pioneer (MI) 2 21:52.1 113.4 8 8
9 Carolyn Schwartz 12 Saline (MI) 6 22:05.8 112.2 9 9
10 Jillian Hayes 11 Saline (MI) 7 22:08.3 112.0 10 10
11 Ansley Canetta 9 Ann Arbor Fr Gabriel Richard (MI) 1 22:16.6 111.3 11 11
12 Astrid Leininger 9 Adrian (MI) 1 22:16.8 111.3 12
13 Nora Kolozsvary 10 Ann Arbor Fr Gabriel Richard (MI) 2 22:17.9 111.2 12 13
14 Megan Welch 10 Ann Arbor Fr Gabriel Richard (MI) 3 22:20.0 111.0 13 14
15 Erin Sax 10 Woodhaven Brownstown (MI) 1 22:22.1 110.9 14 15
16 Elizabeth (Lizzie) Thibeault 12 Saline (MI) 8 22:26.1 110.5 16
17 Jasmine Boggy 12 Ann Arbor Pioneer (MI) 3 22:26.3 110.5 15 17
18 Charlotte Kinder 9 Ann Arbor Pioneer (MI) 4 22:27.6 110.4 16 18
19 Zoe Frederick 12 Ann Arbor Fr Gabriel Richard (MI) 4 22:42.3 109.2 17 19
20 Sofia Dussan 10 Ann Arbor Fr Gabriel Richard (MI) 5 22:43.1 109.2 18 20
21 Mia Washington 10 Saline (MI) 9 22:46.5 108.9 21
22 Riley Provost 11 Saline (MI) 10 22:47.2 108.8 22
23 Avanti Ganesan 12 Ann Arbor Pioneer (MI) 5 22:47.5 108.8 19 23
24 Leah Adkins 11 Carleton Airport (MI) 1 22:48.4 108.7 24
25 Miranda Fulop 10 Temperance Bedford (MI) 2 22:49.3 108.7 20 25
26 Isabelle Kriebel 12 Woodhaven Brownstown (MI) 2 22:54.2 108.3 21 26
27 Allysa Kelly 12 Temperance Bedford (MI) 3 22:54.7 108.2 22 27
28 Ella Otter 8 Wagar (MI) 1 23:05.0 117.2 28
29 Kaitlin Kubicki 12 Chelsea (MI) 1 23:08.4 107.2 23 29
30 Addison Ringbloom 8 Dundee (MI) 1 23:14.3 116.5 24 30
31 Kaylee Hovey 12 Dundee (MI) 2 23:14.8 106.7 25 31
32 Eve Wagner 9 Chelsea (MI) 2 23:14.9 106.7 26 32
33 Kendal Kleman 9 Carleton Airport (MI) 2 23:24.3 106.0 33
34 Abbey Ward 8 Wagar (MI) 2 23:24.4 115.6 34
35 Makenzie Weiher 12 Temperance Bedford (MI) 4 23:26.1 105.8 27 35
36 Mattie Leightner 9 Adrian (MI) 2 23:28.5 105.6 36
37 Sophia Frederick 10 Ann Arbor Fr Gabriel Richard (MI) 6 23:31.5 105.4 28 37
38 Rose Buonerba 10 Ann Arbor Fr Gabriel Richard (MI) 7 23:35.5 105.1 29 38
39 Ellia Egle 9 New Boston Huron (MI) 1 23:39.9 104.8 30 39
40 Claire Chivens 10 Ann Arbor Pioneer (MI) 6 23:42.9 104.6 31 40
41 Aubrey Pakulski 9 Temperance Bedford (MI) 5 23:43.7 104.5 32 41
42 Chiamara Ogbonna 10 Woodhaven Brownstown (MI) 3 23:45.5 104.4 33 42
43 Sarah Hatty 10 Ann Arbor Fr Gabriel Richard (MI) 8 23:46.1 104.3 43
44 Kennedy Lange 11 Saline (MI) 11 23:50.6 104.0 44
45 Audrey Tew 10 Ann Arbor Fr Gabriel Richard (MI) 9 23:53.2 103.8 45
46 Alexa Daniels 12 Ann Arbor Fr Gabriel Richard (MI) 10 23:54.8 103.7 46
47 Harper Smith 9 Ann Arbor Pioneer (MI) 7 24:04.3 103.0 34 47
48 Josie Judge 9 Ann Arbor Fr Gabriel Richard (MI) 11 24:05.4 102.9 48
49 Aurora Welling 11 Chelsea (MI) 3 24:05.4 102.9 35 49
50 Emma Schone 10 Ann Arbor Fr Gabriel Richard (MI) 12 24:06.9 102.8 50
51 Maiya Thomas 9 New Boston Huron (MI) 2 24:20.2 101.9 36 51
52 Julia Schairbaum 10 Ann Arbor Pioneer (MI) 8 24:20.3 101.9 52
53 Chloe Wanner 11 Temperance Bedford (MI) 6 24:21.3 101.8 37 53
54 Danielle Ransom 12 Ann Arbor Pioneer (MI) 9 24:26.6 101.5 54
55 Ophelia Kochoian 11 Wyandotte Roosevelt (MI) 1 24:26.8 101.4 55
56 Aurora Janevic 11 Ann Arbor Pioneer (MI) 10 24:34.9 100.9 56
57 Emma Peer 9 Temperance Bedford (MI) 7 24:35.3 100.8 38 57
58 Stella Mac 9 New Boston Huron (MI) 3 24:36.4 100.8 39 58
59 Kate Kelleher 11 Ann Arbor Pioneer (MI) 11 24:41.3 100.4 59
60 Sophia Bellizzi 9 Chelsea (MI) 4 24:43.0 100.3 40 60
61 Isabelle Gatza 10 Ann Arbor Fr Gabriel Richard (MI) 13 24:44.2 100.2 61
62 Amelia Long 10 Ann Arbor Fr Gabriel Richard (MI) 14 24:50.0 99.8 62
63 Jayelynn Lines 10 Woodhaven Brownstown (MI) 4 24:50.8 99.8 41 63
64 Liliana Gonzalez 10 Woodhaven Brownstown (MI) 5 24:59.1 99.2 42 64
65 Bella Watterson 12 Temperance Bedford (MI) 8 25:19.5 97.9 65
66 Sydney Czopek 11 Woodhaven Brownstown (MI) 6 25:23.0 97.7 43 66
67 Susana Gonzalez 12 Wyandotte Roosevelt (MI) 2 25:23.1 97.7 67
68 Margaret Hsu 9 Ann Arbor Pioneer (MI) 12 25:27.0 97.4 68
69 Gaby Chapman 9 Ann Arbor Pioneer (MI) 13 25:28.6 97.3 69
70 Hadley Feyen 12 Ann Arbor Pioneer (MI) 14 25:31.1 97.2 70
71 Lauren Goeckner 9 Ann Arbor Fr Gabriel Richard (MI) 15 25:32.1 97.1 71
72 Teresa Castillo 11 Ann Arbor Fr Gabriel Richard (MI) 16 25:32.9 97.1 72
73 Ola Rominski 11 Ann Arbor Pioneer (MI) 15 25:43.9 96.4 73
74 Kriszti Njus 9 Ann Arbor Pioneer (MI) 16 25:45.7 96.3 74
75 Ryan Cheney 9 New Boston Huron (MI) 4 25:54.7 95.7 44 75
76 Rose Bembenek 11 Ann Arbor Pioneer (MI) 17 25:56.9 95.6 76
77 Kate Niman 10 Ann Arbor Pioneer (MI) 18 26:04.0 95.1 77
78 Kayloni Nunez 9 Temperance Bedford (MI) 9 26:06.9 95.0 78
79 Jade Moser 9 Ann Arbor Fr Gabriel Richard (MI) 17 26:12.3 94.6 79
80 Meadow Gomez 12 Temperance Bedford (MI) 10 26:14.8 94.5 80
81 Kennedy Humphries 10 Ann Arbor Fr Gabriel Richard (MI) 18 26:19.9 94.2 81
82 Addysan Brayman 6 Wagar (MI) 3 26:22.1 102.6 82
83 Jane Cousino 12 Ann Arbor Fr Gabriel Richard (MI) 19 26:53.2 92.2 83
84 Maya Muenzer 11 Temperance Bedford (MI) 11 27:00.1 91.8 84
85 Kylah Simpson 12 New Boston Huron (MI) 5 27:00.5 91.8 45 85
86 Claudia Canetta 10 Ann Arbor Fr Gabriel Richard (MI) 20 27:06.8 91.5 86
87 Isabella Rodriguez 8 Dundee (MI) 3 27:08.9 99.7 46 87
88 Lydia Richards 10 Dundee (MI) 4 27:10.2 47 88
89 Natalie Ghezzi 12 Ann Arbor Fr Gabriel Richard (MI) 21 27:11.2 91.2 89
90 Juliet Towns 9 Ypsilanti Lincoln (MI) 1 27:19.7 90.7 90
91 Lila Henry 11 Ann Arbor Pioneer (MI) 19 27:24.5 90.5 91
92 Jayden Mason-Schickel 12 Ann Arbor Fr Gabriel Richard (MI) 22 27:33.5 90.0 92
93 Kayliana Modzelewski 12 Wyandotte Roosevelt (MI) 3 27:39.5 89.7 93
94 Grace Gargol 10 Ann Arbor Fr Gabriel Richard (MI) 23 27:49.4 89.1 94
95 Philomena Michalik 12 Ann Arbor Fr Gabriel Richard (MI) 24 27:54.5 88.8 95
96 Gretchen Douglass 11 Dundee (MI) 5 28:00.6 88.5 48 96
97 Abigail Hood 11 Ann Arbor Pioneer (MI) 20 28:06.3 88.2 97
98 Hattie Pok 11 Ann Arbor Pioneer (MI) 21 28:08.0 88.1 98
99 Pandora Siadak 9 Woodhaven Brownstown (MI) 7 28:16.5 87.7 49 99
100 Anaya Dastidar 11 Ypsilanti Community (MI) 1 28:53.4 100
101 Jolene Mills 10 Wyandotte Roosevelt (MI) 4 28:54.6 85.8 101
102 Avani Samineni 10 Belleville (WI) 1 29:00.4 85.5 102
103 Simran Kapoor 12 Ypsilanti Community (MI) 2 29:11.6 84.9 103
104 Arianna Haaser 12 Temperance Bedford (MI) 12 29:17.1 84.7 104
105 Gabriella Hovey 10 Dundee (MI) 6 29:27.8 50 105
106 Joanna Loredo 9 Dundee (MI) 7 29:29.4 84.1 51 106
107 Karlee Austin 9 Woodhaven Brownstown (MI) 8 30:40.8 80.8 107
108 Grace Krugh 10 Chelsea (MI) 5 30:49.1 80.5 52 108
109 Solana Purse 12 Ypsilanti Lincoln (MI) 2 30:56.2 80.2 109
110 Serenity Pello 11 Temperance Bedford (MI) 13 32:00.2 77.5 110
111 Emily Xiao 9 Chelsea (MI) 6 33:01.9 75.1 53 111
112 Cecilia Mikel 11 Ypsilanti Lincoln (MI) 3 33:05.6 74.9 112
113 Skylar Mason-Schickel 9 Ann Arbor Fr Gabriel Richard (MI) 25 33:56.0 73.1 113
114 Marta Tebar Perez 10 Chelsea (MI) 7 34:32.1 71.8 54 114
115 Zoey Webb 12 Carleton Airport (MI) 3 34:54.0 71.0 115